sensor_id;sensor_type;location;lat;lon;timestamp;temperature;humidity
38398;DHT22;24179;52.094;4.408;2022-12-20T00:01:24;10.70;99.90
38398;DHT22;24179;52.094;4.408;2022-12-20T00:04:24;10.60;99.90
38398;DHT22;24179;52.094;4.408;2022-12-20T00:07:25;10.60;99.90
38398;DHT22;24179;52.094;4.408;2022-12-20T00:10:25;10.80;99.90
38398;DHT22;24179;52.094;4.408;2022-12-20T00:13:28;10.80;99.90
38398;DHT22;24179;52.094;4.408;2022-12-20T00:16:29;10.80;99.90
38398;DHT22;24179;52.094;4.408;2022-12-20T00:19:29;10.80;99.90
38398;DHT22;24179;52.094;4.408;2022-12-20T00:22:32;10.80;99.90
38398;DHT22;24179;52.094;4.408;2022-12-20T00:25:33;10.70;99.90
38398;DHT22;24179;52.094;4.408;2022-12-20T00:28:34;10.60;99.90
38398;DHT22;24179;52.094;4.408;2022-12-20T00:31:34;10.70;99.90
38398;DHT22;24179;52.094;4.408;2022-12-20T00:34:35;10.70;99.90
38398;DHT22;24179;52.094;4.408;2022-12-20T00:37:38;10.70;99.90
38398;DHT22;24179;52.094;4.408;2022-12-20T00:40:39;10.70;99.90
38398;DHT22;24179;52.094;4.408;2022-12-20T00:43:39;10.70;99.90
38398;DHT22;24179;52.094;4.408;2022-12-20T00:46:40;10.50;99.90
38398;DHT22;24179;52.094;4.408;2022-12-20T00:49:40;10.40;99.90
38398;DHT22;24179;52.094;4.408;2022-12-20T00:52:41;10.30;99.90
38398;DHT22;24179;52.094;4.408;2022-12-20T00:55:45;10.20;99.90
38398;DHT22;24179;52.094;4.408;2022-12-20T00:58:45;10.20;99.90
38398;DHT22;24179;52.094;4.408;2022-12-20T01:01:46;10.10;99.90
38398;DHT22;24179;52.094;4.408;2022-12-20T01:04:47;10.10;99.90
38398;DHT22;24179;52.094;4.408;2022-12-20T01:07:48;10.10;99.90
38398;DHT22;24179;52.094;4.408;2022-12-20T01:14:00;10.20;99.90
38398;DHT22;24179;52.094;4.408;2022-12-20T01:17:00;10.20;99.90
38398;DHT22;24179;52.094;4.408;2022-12-20T01:20:01;10.20;99.90
38398;DHT22;24179;52.094;4.408;2022-12-20T01:23:02;10.30;99.90
38398;DHT22;24179;52.094;4.408;2022-12-20T01:26:03;10.40;99.90
38398;DHT22;24179;52.094;4.408;2022-12-20T01:29:04;10.40;99.90
38398;DHT22;24179;52.094;4.408;2022-12-20T01:32:05;10.50;99.90
38398;DHT22;24179;52.094;4.408;2022-12-20T01:35:07;10.50;99.90
38398;DHT22;24179;52.094;4.408;2022-12-20T01:38:10;10.50;99.90
38398;DHT22;24179;52.094;4.408;2022-12-20T01:41:14;10.50;99.90
38398;DHT22;24179;52.094;4.408;2022-12-20T01:47:16;10.40;99.90
38398;DHT22;24179;52.094;4.408;2022-12-20T01:50:16;10.50;99.90
38398;DHT22;24179;52.094;4.408;2022-12-20T01:53:17;10.50;99.90
38398;DHT22;24179;52.094;4.408;2022-12-20T01:56:20;10.60;99.90
38398;DHT22;24179;52.094;4.408;2022-12-20T01:59:20;10.60;99.90
38398;DHT22;24179;52.094;4.408;2022-12-20T02:02:21;10.60;99.90
38398;DHT22;24179;52.094;4.408;2022-12-20T02:05:22;10.60;99.90
38398;DHT22;24179;52.094;4.408;2022-12-20T02:08:22;10.60;99.90
38398;DHT22;24179;52.094;4.408;2022-12-20T02:11:27;10.70;99.90
38398;DHT22;24179;52.094;4.408;2022-12-20T02:20:45;10.70;99.90
38398;DHT22;24179;52.094;4.408;2022-12-20T02:30:22;10.70;99.90
38398;DHT22;24179;52.094;4.408;2022-12-20T02:33:15;10.70;99.90
38398;DHT22;24179;52.094;4.408;2022-12-20T02:36:18;10.70;99.90
38398;DHT22;24179;52.094;4.408;2022-12-20T02:39:19;10.70;99.90
38398;DHT22;24179;52.094;4.408;2022-12-20T02:42:22;10.70;99.90
38398;DHT22;24179;52.094;4.408;2022-12-20T02:45:25;10.70;99.90
38398;DHT22;24179;52.094;4.408;2022-12-20T02:48:27;10.70;99.90
38398;DHT22;24179;52.094;4.408;2022-12-20T02:51:28;10.80;99.90
38398;DHT22;24179;52.094;4.408;2022-12-20T02:54:29;10.80;99.90
38398;DHT22;24179;52.094;4.408;2022-12-20T03:00:49;10.90;99.90
38398;DHT22;24179;52.094;4.408;2022-12-20T03:03:50;10.80;99.90
38398;DHT22;24179;52.094;4.408;2022-12-20T03:07:01;10.90;99.90
38398;DHT22;24179;52.094;4.408;2022-12-20T03:10:01;10.90;99.90
38398;DHT22;24179;52.094;4.408;2022-12-20T03:13:02;10.90;99.90
38398;DHT22;24179;52.094;4.408;2022-12-20T03:16:03;11.00;99.90
38398;DHT22;24179;52.094;4.408;2022-12-20T03:19:03;11.00;99.90
38398;DHT22;24179;52.094;4.408;2022-12-20T03:22:04;11.10;99.90
38398;DHT22;24179;52.094;4.408;2022-12-20T03:25:04;11.10;99.90
38398;DHT22;24179;52.094;4.408;2022-12-20T03:28:05;11.10;99.90
38398;DHT22;24179;52.094;4.408;2022-12-20T03:31:05;11.10;99.90
38398;DHT22;24179;52.094;4.408;2022-12-20T03:34:06;10.90;99.90
38398;DHT22;24179;52.094;4.408;2022-12-20T03:37:06;11.10;99.90
38398;DHT22;24179;52.094;4.408;2022-12-20T03:40:07;11.00;99.90
38398;DHT22;24179;52.094;4.408;2022-12-20T03:43:08;11.00;99.90
38398;DHT22;24179;52.094;4.408;2022-12-20T03:46:08;11.00;99.90
38398;DHT22;24179;52.094;4.408;2022-12-20T03:49:09;11.00;99.90
38398;DHT22;24179;52.094;4.408;2022-12-20T03:52:10;11.00;99.90
38398;DHT22;24179;52.094;4.408;2022-12-20T03:55:11;11.00;99.90
38398;DHT22;24179;52.094;4.408;2022-12-20T03:58:11;11.10;99.90
38398;DHT22;24179;52.094;4.408;2022-12-20T04:01:22;11.10;99.90
38398;DHT22;24179;52.094;4.408;2022-12-20T04:04:23;11.00;99.90
38398;DHT22;24179;52.094;4.408;2022-12-20T04:07:23;11.00;99.90
38398;DHT22;24179;52.094;4.408;2022-12-20T04:10:30;11.10;99.90
38398;DHT22;24179;52.094;4.408;2022-12-20T04:13:30;11.00;99.90
38398;DHT22;24179;52.094;4.408;2022-12-20T04:16:31;10.90;99.90
38398;DHT22;24179;52.094;4.408;2022-12-20T04:19:31;10.90;99.90
38398;DHT22;24179;52.094;4.408;2022-12-20T04:22:32;10.90;99.90
38398;DHT22;24179;52.094;4.408;2022-12-20T04:25:33;10.70;99.90
38398;DHT22;24179;52.094;4.408;2022-12-20T04:28:34;10.50;99.90
38398;DHT22;24179;52.094;4.408;2022-12-20T04:31:36;10.40;99.90
38398;DHT22;24179;52.094;4.408;2022-12-20T04:34:36;10.40;99.90
38398;DHT22;24179;52.094;4.408;2022-12-20T04:37:37;10.40;99.90
38398;DHT22;24179;52.094;4.408;2022-12-20T04:40:37;10.40;99.90
38398;DHT22;24179;52.094;4.408;2022-12-20T04:43:41;10.40;99.90
38398;DHT22;24179;52.094;4.408;2022-12-20T04:46:41;10.40;99.90
38398;DHT22;24179;52.094;4.408;2022-12-20T04:49:42;10.40;99.90
38398;DHT22;24179;52.094;4.408;2022-12-20T04:52:42;10.40;99.90
38398;DHT22;24179;52.094;4.408;2022-12-20T04:56:01;10.40;99.90
38398;DHT22;24179;52.094;4.408;2022-12-20T04:59:02;10.40;99.90
38398;DHT22;24179;52.094;4.408;2022-12-20T05:02:02;10.50;99.90
38398;DHT22;24179;52.094;4.408;2022-12-20T05:05:03;10.50;99.90
38398;DHT22;24179;52.094;4.408;2022-12-20T05:08:03;10.50;99.90
38398;DHT22;24179;52.094;4.408;2022-12-20T05:11:04;10.50;99.90
38398;DHT22;24179;52.094;4.408;2022-12-20T05:14:08;10.60;99.90
38398;DHT22;24179;52.094;4.408;2022-12-20T05:17:14;10.60;99.90
38398;DHT22;24179;52.094;4.408;2022-12-20T05:20:15;10.60;99.90
38398;DHT22;24179;52.094;4.408;2022-12-20T05:23:15;10.60;99.90
38398;DHT22;24179;52.094;4.408;2022-12-20T05:26:35;10.70;99.90
38398;DHT22;24179;52.094;4.408;2022-12-20T05:29:36;10.70;99.90
38398;DHT22;24179;52.094;4.408;2022-12-20T05:32:36;10.70;99.90
38398;DHT22;24179;52.094;4.408;2022-12-20T05:35:37;10.70;99.90
38398;DHT22;24179;52.094;4.408;2022-12-20T05:38:37;10.80;99.90
38398;DHT22;24179;52.094;4.408;2022-12-20T05:41:38;10.80;99.90
38398;DHT22;24179;52.094;4.408;2022-12-20T05:44:39;10.90;99.90
38398;DHT22;24179;52.094;4.408;2022-12-20T05:47:40;10.90;99.90
38398;DHT22;24179;52.094;4.408;2022-12-20T05:50:40;11.00;99.90
38398;DHT22;24179;52.094;4.408;2022-12-20T05:53:43;11.10;99.90
38398;DHT22;24179;52.094;4.408;2022-12-20T05:56:43;11.10;99.90
38398;DHT22;24179;52.094;4.408;2022-12-20T05:59:44;11.10;99.90
38398;DHT22;24179;52.094;4.408;2022-12-20T06:02:44;11.20;99.90
38398;DHT22;24179;52.094;4.408;2022-12-20T06:05:45;11.20;99.90
38398;DHT22;24179;52.094;4.408;2022-12-20T06:08:45;11.30;99.90
38398;DHT22;24179;52.094;4.408;2022-12-20T06:11:46;11.30;99.90
38398;DHT22;24179;52.094;4.408;2022-12-20T06:14:46;11.40;99.90
38398;DHT22;24179;52.094;4.408;2022-12-20T06:17:47;11.40;99.90
38398;DHT22;24179;52.094;4.408;2022-12-20T06:20:51;11.40;99.90
38398;DHT22;24179;52.094;4.408;2022-12-20T06:23:51;11.50;99.90
38398;DHT22;24179;52.094;4.408;2022-12-20T06:26:52;11.60;99.90
38398;DHT22;24179;52.094;4.408;2022-12-20T06:29:52;11.60;99.90
38398;DHT22;24179;52.094;4.408;2022-12-20T06:32:53;11.50;99.90
38398;DHT22;24179;52.094;4.408;2022-12-20T06:35:54;11.50;99.90
38398;DHT22;24179;52.094;4.408;2022-12-20T06:38:54;11.50;99.90
38398;DHT22;24179;52.094;4.408;2022-12-20T06:41:55;11.50;99.90
38398;DHT22;24179;52.094;4.408;2022-12-20T06:44:55;11.50;99.90
38398;DHT22;24179;52.094;4.408;2022-12-20T06:47:56;11.50;99.90
38398;DHT22;24179;52.094;4.408;2022-12-20T06:50:57;11.50;99.90
38398;DHT22;24179;52.094;4.408;2022-12-20T06:53:57;11.50;99.90
38398;DHT22;24179;52.094;4.408;2022-12-20T06:56:58;11.50;99.90
38398;DHT22;24179;52.094;4.408;2022-12-20T06:59:58;11.60;99.90
38398;DHT22;24179;52.094;4.408;2022-12-20T07:03:02;11.60;99.90
38398;DHT22;24179;52.094;4.408;2022-12-20T07:06:02;11.60;99.90
38398;DHT22;24179;52.094;4.408;2022-12-20T07:09:03;11.60;99.90
38398;DHT22;24179;52.094;4.408;2022-12-20T07:12:03;11.60;99.90
38398;DHT22;24179;52.094;4.408;2022-12-20T07:15:04;11.70;99.90
38398;DHT22;24179;52.094;4.408;2022-12-20T07:18:05;11.70;99.90
38398;DHT22;24179;52.094;4.408;2022-12-20T07:21:06;11.70;99.90
38398;DHT22;24179;52.094;4.408;2022-12-20T07:24:07;11.70;99.90
38398;DHT22;24179;52.094;4.408;2022-12-20T07:27:09;11.70;99.90
38398;DHT22;24179;52.094;4.408;2022-12-20T07:30:09;11.70;99.90
38398;DHT22;24179;52.094;4.408;2022-12-20T07:33:10;11.60;99.90
38398;DHT22;24179;52.094;4.408;2022-12-20T07:36:11;11.50;99.90
38398;DHT22;24179;52.094;4.408;2022-12-20T07:39:12;11.60;99.90
38398;DHT22;24179;52.094;4.408;2022-12-20T07:42:12;11.50;99.90
38398;DHT22;24179;52.094;4.408;2022-12-20T07:45:13;11.40;99.90
38398;DHT22;24179;52.094;4.408;2022-12-20T07:48:14;11.50;99.90
38398;DHT22;24179;52.094;4.408;2022-12-20T07:51:19;11.40;99.90
38398;DHT22;24179;52.094;4.408;2022-12-20T07:54:22;11.30;99.90
38398;DHT22;24179;52.094;4.408;2022-12-20T07:57:24;11.20;99.90
38398;DHT22;24179;52.094;4.408;2022-12-20T08:00:26;11.00;99.90
38398;DHT22;24179;52.094;4.408;2022-12-20T08:03:27;11.00;99.90
38398;DHT22;24179;52.094;4.408;2022-12-20T08:06:31;10.80;99.90
38398;DHT22;24179;52.094;4.408;2022-12-20T08:09:34;10.60;99.90
38398;DHT22;24179;52.094;4.408;2022-12-20T08:12:36;10.40;99.90
38398;DHT22;24179;52.094;4.408;2022-12-20T08:15:37;10.30;99.90
38398;DHT22;24179;52.094;4.408;2022-12-20T08:18:38;10.20;99.90
38398;DHT22;24179;52.094;4.408;2022-12-20T08:21:38;10.10;99.90
38398;DHT22;24179;52.094;4.408;2022-12-20T08:24:39;10.10;99.90
38398;DHT22;24179;52.094;4.408;2022-12-20T08:27:39;10.20;99.90
38398;DHT22;24179;52.094;4.408;2022-12-20T08:30:40;10.10;99.90
38398;DHT22;24179;52.094;4.408;2022-12-20T08:33:40;10.20;99.90
38398;DHT22;24179;52.094;4.408;2022-12-20T08:36:41;10.20;99.90
38398;DHT22;24179;52.094;4.408;2022-12-20T08:39:42;10.20;99.90
38398;DHT22;24179;52.094;4.408;2022-12-20T08:42:43;10.20;99.90
38398;DHT22;24179;52.094;4.408;2022-12-20T08:45:43;10.20;99.90
38398;DHT22;24179;52.094;4.408;2022-12-20T08:48:44;10.20;99.90
38398;DHT22;24179;52.094;4.408;2022-12-20T08:51:44;10.30;99.90
38398;DHT22;24179;52.094;4.408;2022-12-20T08:54:45;10.40;99.90
38398;DHT22;24179;52.094;4.408;2022-12-20T08:57:45;10.40;99.90
38398;DHT22;24179;52.094;4.408;2022-12-20T09:00:46;10.40;99.90
38398;DHT22;24179;52.094;4.408;2022-12-20T09:03:47;10.50;99.90
38398;DHT22;24179;52.094;4.408;2022-12-20T09:06:47;10.40;99.90
38398;DHT22;24179;52.094;4.408;2022-12-20T09:09:48;10.40;99.90
38398;DHT22;24179;52.094;4.408;2022-12-20T09:12:48;10.40;99.90
38398;DHT22;24179;52.094;4.408;2022-12-20T09:15:49;10.40;99.90
38398;DHT22;24179;52.094;4.408;2022-12-20T09:18:50;10.30;99.90
38398;DHT22;24179;52.094;4.408;2022-12-20T09:21:51;10.40;99.90
38398;DHT22;24179;52.094;4.408;2022-12-20T09:24:52;10.40;99.90
38398;DHT22;24179;52.094;4.408;2022-12-20T09:27:53;10.40;99.90
38398;DHT22;24179;52.094;4.408;2022-12-20T09:31:02;10.40;99.90
38398;DHT22;24179;52.094;4.408;2022-12-20T09:34:03;10.40;99.90
38398;DHT22;24179;52.094;4.408;2022-12-20T09:37:06;10.40;99.90
38398;DHT22;24179;52.094;4.408;2022-12-20T09:40:13;10.40;99.90
38398;DHT22;24179;52.094;4.408;2022-12-20T09:43:14;10.50;99.90
38398;DHT22;24179;52.094;4.408;2022-12-20T09:46:15;10.50;99.90
38398;DHT22;24179;52.094;4.408;2022-12-20T09:49:16;10.40;99.90
38398;DHT22;24179;52.094;4.408;2022-12-20T09:55:42;10.50;99.90
38398;DHT22;24179;52.094;4.408;2022-12-20T10:01:43;10.40;99.90
38398;DHT22;24179;52.094;4.408;2022-12-20T10:04:44;10.40;99.90
38398;DHT22;24179;52.094;4.408;2022-12-20T10:07:52;10.40;99.90
38398;DHT22;24179;52.094;4.408;2022-12-20T10:17:01;10.40;99.90
38398;DHT22;24179;52.094;4.408;2022-12-20T10:20:21;10.40;99.90
38398;DHT22;24179;52.094;4.408;2022-12-20T10:26:31;10.40;99.90
38398;DHT22;24179;52.094;4.408;2022-12-20T10:29:32;10.50;99.90
38398;DHT22;24179;52.094;4.408;2022-12-20T10:32:33;10.50;99.90
38398;DHT22;24179;52.094;4.408;2022-12-20T10:35:39;10.50;99.90
38398;DHT22;24179;52.094;4.408;2022-12-20T10:38:44;10.50;99.90
38398;DHT22;24179;52.094;4.408;2022-12-20T10:41:47;10.50;99.90
38398;DHT22;24179;52.094;4.408;2022-12-20T10:44:48;10.50;99.90
38398;DHT22;24179;52.094;4.408;2022-12-20T10:47:49;10.50;99.90
38398;DHT22;24179;52.094;4.408;2022-12-20T10:50:55;10.50;99.90
38398;DHT22;24179;52.094;4.408;2022-12-20T10:53:56;10.60;99.90
38398;DHT22;24179;52.094;4.408;2022-12-20T10:57:01;10.60;99.90
38398;DHT22;24179;52.094;4.408;2022-12-20T11:00:04;10.60;99.90
38398;DHT22;24179;52.094;4.408;2022-12-20T11:03:13;10.60;99.90
38398;DHT22;24179;52.094;4.408;2022-12-20T11:06:15;10.60;99.90
38398;DHT22;24179;52.094;4.408;2022-12-20T11:12:22;10.70;99.90
38398;DHT22;24179;52.094;4.408;2022-12-20T11:15:27;10.70;99.90
38398;DHT22;24179;52.094;4.408;2022-12-20T11:22:04;10.60;99.90
38398;DHT22;24179;52.094;4.408;2022-12-20T11:35:05;10.80;99.90
38398;DHT22;24179;52.094;4.408;2022-12-20T11:44:28;10.90;99.90
38398;DHT22;24179;52.094;4.408;2022-12-20T11:51:03;10.90;99.90
38398;DHT22;24179;52.094;4.408;2022-12-20T11:57:28;10.80;99.90
38398;DHT22;24179;52.094;4.408;2022-12-20T12:00:31;10.80;99.90
38398;DHT22;24179;52.094;4.408;2022-12-20T12:06:36;10.80;99.90
38398;DHT22;24179;52.094;4.408;2022-12-20T12:09:39;10.70;99.90
38398;DHT22;24179;52.094;4.408;2022-12-20T12:12:42;10.70;99.90
38398;DHT22;24179;52.094;4.408;2022-12-20T12:15:47;10.70;99.90
38398;DHT22;24179;52.094;4.408;2022-12-20T12:18:52;10.80;99.90
38398;DHT22;24179;52.094;4.408;2022-12-20T12:21:53;10.80;99.90
38398;DHT22;24179;52.094;4.408;2022-12-20T12:24:56;10.80;99.90
38398;DHT22;24179;52.094;4.408;2022-12-20T12:27:58;10.80;99.90
38398;DHT22;24179;52.094;4.408;2022-12-20T12:31:02;10.80;99.90
38398;DHT22;24179;52.094;4.408;2022-12-20T12:46:39;10.80;99.90
38398;DHT22;24179;52.094;4.408;2022-12-20T12:49:40;10.70;99.90
38398;DHT22;24179;52.094;4.408;2022-12-20T12:52:43;10.80;99.90
38398;DHT22;24179;52.094;4.408;2022-12-20T12:55:46;10.80;99.90
38398;DHT22;24179;52.094;4.408;2022-12-20T13:02:25;10.80;99.90
38398;DHT22;24179;52.094;4.408;2022-12-20T13:05:30;10.80;99.90
38398;DHT22;24179;52.094;4.408;2022-12-20T13:08:45;10.80;99.90
38398;DHT22;24179;52.094;4.408;2022-12-20T13:11:47;10.80;99.90
38398;DHT22;24179;52.094;4.408;2022-12-20T13:14:47;10.80;99.90
38398;DHT22;24179;52.094;4.408;2022-12-20T13:17:58;10.90;99.90
38398;DHT22;24179;52.094;4.408;2022-12-20T13:21:15;10.80;99.90
38398;DHT22;24179;52.094;4.408;2022-12-20T13:27:49;10.80;99.90
38398;DHT22;24179;52.094;4.408;2022-12-20T13:33:59;10.80;99.90
38398;DHT22;24179;52.094;4.408;2022-12-20T13:37:01;10.80;99.90
38398;DHT22;24179;52.094;4.408;2022-12-20T13:40:04;10.80;99.90
38398;DHT22;24179;52.094;4.408;2022-12-20T13:46:24;10.70;99.90
38398;DHT22;24179;52.094;4.408;2022-12-20T13:49:26;10.70;99.90
38398;DHT22;24179;52.094;4.408;2022-12-20T13:52:28;10.60;99.90
38398;DHT22;24179;52.094;4.408;2022-12-20T13:55:31;10.60;99.90
38398;DHT22;24179;52.094;4.408;2022-12-20T13:58:32;10.60;99.90
38398;DHT22;24179;52.094;4.408;2022-12-20T14:01:35;10.50;99.90
38398;DHT22;24179;52.094;4.408;2022-12-20T14:04:39;10.60;99.90
38398;DHT22;24179;52.094;4.408;2022-12-20T14:07:40;10.60;99.90
38398;DHT22;24179;52.094;4.408;2022-12-20T14:10:41;10.60;99.90
38398;DHT22;24179;52.094;4.408;2022-12-20T14:13:49;10.60;99.90
38398;DHT22;24179;52.094;4.408;2022-12-20T14:16:50;10.60;99.90
38398;DHT22;24179;52.094;4.408;2022-12-20T14:23:11;10.60;99.90
38398;DHT22;24179;52.094;4.408;2022-12-20T14:26:17;10.60;99.90
38398;DHT22;24179;52.094;4.408;2022-12-20T14:29:19;10.60;99.90
38398;DHT22;24179;52.094;4.408;2022-12-20T14:32:22;10.70;99.90
38398;DHT22;24179;52.094;4.408;2022-12-20T14:35:23;10.70;99.90
38398;DHT22;24179;52.094;4.408;2022-12-20T14:38:28;10.70;99.90
38398;DHT22;24179;52.094;4.408;2022-12-20T14:44:33;10.70;99.90
38398;DHT22;24179;52.094;4.408;2022-12-20T14:47:34;10.70;99.90
38398;DHT22;24179;52.094;4.408;2022-12-20T14:50:36;10.70;99.90
38398;DHT22;24179;52.094;4.408;2022-12-20T14:53:37;10.70;99.90
38398;DHT22;24179;52.094;4.408;2022-12-20T14:56:43;10.60;99.90
38398;DHT22;24179;52.094;4.408;2022-12-20T14:59:44;10.60;99.90
38398;DHT22;24179;52.094;4.408;2022-12-20T15:05:57;10.60;99.90
38398;DHT22;24179;52.094;4.408;2022-12-20T15:09:01;10.60;99.90
38398;DHT22;24179;52.094;4.408;2022-12-20T15:12:01;10.50;99.90
38398;DHT22;24179;52.094;4.408;2022-12-20T15:15:02;10.50;99.90
38398;DHT22;24179;52.094;4.408;2022-12-20T15:18:07;10.50;99.90
38398;DHT22;24179;52.094;4.408;2022-12-20T15:21:26;10.50;99.90
38398;DHT22;24179;52.094;4.408;2022-12-20T15:24:27;10.50;99.90
38398;DHT22;24179;52.094;4.408;2022-12-20T15:27:28;10.60;99.90
38398;DHT22;24179;52.094;4.408;2022-12-20T15:30:28;10.50;99.90
38398;DHT22;24179;52.094;4.408;2022-12-20T15:33:29;10.50;99.90
38398;DHT22;24179;52.094;4.408;2022-12-20T15:36:30;10.50;99.90
38398;DHT22;24179;52.094;4.408;2022-12-20T15:39:32;10.50;99.90
38398;DHT22;24179;52.094;4.408;2022-12-20T15:42:33;10.50;99.90
38398;DHT22;24179;52.094;4.408;2022-12-20T15:45:34;10.50;99.90
38398;DHT22;24179;52.094;4.408;2022-12-20T15:48:35;10.50;99.90
38398;DHT22;24179;52.094;4.408;2022-12-20T15:51:36;10.40;99.90
38398;DHT22;24179;52.094;4.408;2022-12-20T15:54:37;10.50;99.90
38398;DHT22;24179;52.094;4.408;2022-12-20T15:57:37;10.50;99.90
38398;DHT22;24179;52.094;4.408;2022-12-20T16:00:38;10.50;99.90
38398;DHT22;24179;52.094;4.408;2022-12-20T16:03:40;10.50;99.90
38398;DHT22;24179;52.094;4.408;2022-12-20T16:06:41;10.40;99.90
38398;DHT22;24179;52.094;4.408;2022-12-20T16:09:42;10.40;99.90
38398;DHT22;24179;52.094;4.408;2022-12-20T16:12:43;10.50;99.90
38398;DHT22;24179;52.094;4.408;2022-12-20T16:15:44;10.50;99.90
38398;DHT22;24179;52.094;4.408;2022-12-20T16:18:45;10.50;99.90
38398;DHT22;24179;52.094;4.408;2022-12-20T16:21:47;10.40;99.90
38398;DHT22;24179;52.094;4.408;2022-12-20T16:24:47;10.40;99.90
38398;DHT22;24179;52.094;4.408;2022-12-20T16:27:48;10.40;99.90
38398;DHT22;24179;52.094;4.408;2022-12-20T16:30:49;10.40;99.90
38398;DHT22;24179;52.094;4.408;2022-12-20T16:33:52;10.40;99.90
38398;DHT22;24179;52.094;4.408;2022-12-20T16:36:53;10.40;99.90
38398;DHT22;24179;52.094;4.408;2022-12-20T16:39:54;10.40;99.90
38398;DHT22;24179;52.094;4.408;2022-12-20T16:42:55;10.40;99.90
38398;DHT22;24179;52.094;4.408;2022-12-20T16:45:55;10.40;99.90
38398;DHT22;24179;52.094;4.408;2022-12-20T16:48:57;10.40;99.90
38398;DHT22;24179;52.094;4.408;2022-12-20T16:51:57;10.40;99.90
38398;DHT22;24179;52.094;4.408;2022-12-20T16:54:58;10.30;99.90
38398;DHT22;24179;52.094;4.408;2022-12-20T16:57:58;10.30;99.90
38398;DHT22;24179;52.094;4.408;2022-12-20T20:02:56;9.00;99.90
38398;DHT22;24179;52.094;4.408;2022-12-20T20:05:57;9.00;99.90
38398;DHT22;24179;52.094;4.408;2022-12-20T20:08:57;9.10;99.90
38398;DHT22;24179;52.094;4.408;2022-12-20T20:11:59;9.20;99.90
38398;DHT22;24179;52.094;4.408;2022-12-20T20:15:00;9.30;99.90
38398;DHT22;24179;52.094;4.408;2022-12-20T20:18:00;9.40;99.90
38398;DHT22;24179;52.094;4.408;2022-12-20T20:21:07;9.40;99.90
38398;DHT22;24179;52.094;4.408;2022-12-20T20:24:08;9.40;99.90
38398;DHT22;24179;52.094;4.408;2022-12-20T20:27:09;9.40;99.90
38398;DHT22;24179;52.094;4.408;2022-12-20T20:30:10;9.50;99.90
38398;DHT22;24179;52.094;4.408;2022-12-20T20:33:13;9.40;99.90
38398;DHT22;24179;52.094;4.408;2022-12-20T20:36:14;9.40;99.90
38398;DHT22;24179;52.094;4.408;2022-12-20T20:39:15;9.40;99.90
38398;DHT22;24179;52.094;4.408;2022-12-20T20:42:16;9.40;99.90
38398;DHT22;24179;52.094;4.408;2022-12-20T20:45:16;9.40;99.90
38398;DHT22;24179;52.094;4.408;2022-12-20T20:48:17;9.30;99.90
38398;DHT22;24179;52.094;4.408;2022-12-20T20:51:17;9.40;99.90
38398;DHT22;24179;52.094;4.408;2022-12-20T20:54:20;9.30;99.90
38398;DHT22;24179;52.094;4.408;2022-12-20T20:57:21;9.30;99.90
38398;DHT22;24179;52.094;4.408;2022-12-20T21:00:21;9.30;99.90
38398;DHT22;24179;52.094;4.408;2022-12-20T21:03:23;9.30;99.90
38398;DHT22;24179;52.094;4.408;2022-12-20T21:06:23;9.30;99.90
38398;DHT22;24179;52.094;4.408;2022-12-20T21:09:24;9.20;99.90
38398;DHT22;24179;52.094;4.408;2022-12-20T21:12:24;9.30;99.90
38398;DHT22;24179;52.094;4.408;2022-12-20T21:15:25;9.20;99.90
38398;DHT22;24179;52.094;4.408;2022-12-20T21:18:27;9.20;99.90
38398;DHT22;24179;52.094;4.408;2022-12-20T21:21:27;9.20;99.90
38398;DHT22;24179;52.094;4.408;2022-12-20T21:24:28;9.20;99.90
38398;DHT22;24179;52.094;4.408;2022-12-20T21:27:29;9.20;99.90
38398;DHT22;24179;52.094;4.408;2022-12-20T21:30:29;9.20;99.90
38398;DHT22;24179;52.094;4.408;2022-12-20T21:33:30;9.10;99.90
38398;DHT22;24179;52.094;4.408;2022-12-20T21:36:30;9.00;99.90
38398;DHT22;24179;52.094;4.408;2022-12-20T21:39:31;9.00;99.90
38398;DHT22;24179;52.094;4.408;2022-12-20T21:42:32;8.90;99.90
38398;DHT22;24179;52.094;4.408;2022-12-20T21:45:32;8.90;99.90
38398;DHT22;24179;52.094;4.408;2022-12-20T21:48:33;8.90;99.90
38398;DHT22;24179;52.094;4.408;2022-12-20T21:51:33;8.80;99.90
38398;DHT22;24179;52.094;4.408;2022-12-20T21:54:34;8.70;99.90
38398;DHT22;24179;52.094;4.408;2022-12-20T21:57:35;8.60;99.90
38398;DHT22;24179;52.094;4.408;2022-12-20T22:00:35;8.50;99.90
38398;DHT22;24179;52.094;4.408;2022-12-20T22:03:36;8.40;99.90
38398;DHT22;24179;52.094;4.408;2022-12-20T22:06:37;8.40;99.90
38398;DHT22;24179;52.094;4.408;2022-12-20T22:09:37;8.40;99.90
38398;DHT22;24179;52.094;4.408;2022-12-20T22:12:38;8.40;99.90
38398;DHT22;24179;52.094;4.408;2022-12-20T22:15:38;8.40;99.90
38398;DHT22;24179;52.094;4.408;2022-12-20T22:18:39;8.50;99.90
38398;DHT22;24179;52.094;4.408;2022-12-20T22:21:42;8.50;99.90
38398;DHT22;24179;52.094;4.408;2022-12-20T22:24:43;8.50;99.90
38398;DHT22;24179;52.094;4.408;2022-12-20T22:27:43;8.60;99.90
38398;DHT22;24179;52.094;4.408;2022-12-20T22:30:43;8.60;99.90
38398;DHT22;24179;52.094;4.408;2022-12-20T22:33:44;8.50;99.90
38398;DHT22;24179;52.094;4.408;2022-12-20T22:36:45;8.50;99.90
38398;DHT22;24179;52.094;4.408;2022-12-20T22:39:45;8.50;99.90
38398;DHT22;24179;52.094;4.408;2022-12-20T22:42:46;8.50;99.90
38398;DHT22;24179;52.094;4.408;2022-12-20T22:45:56;8.50;99.90
38398;DHT22;24179;52.094;4.408;2022-12-20T22:48:57;8.50;99.90
38398;DHT22;24179;52.094;4.408;2022-12-20T22:51:58;8.50;99.90
38398;DHT22;24179;52.094;4.408;2022-12-20T22:54:58;8.50;99.90
38398;DHT22;24179;52.094;4.408;2022-12-20T22:57:59;8.50;99.90
38398;DHT22;24179;52.094;4.408;2022-12-20T23:01:00;8.50;99.90
38398;DHT22;24179;52.094;4.408;2022-12-20T23:04:01;8.50;99.90
38398;DHT22;24179;52.094;4.408;2022-12-20T23:07:02;8.50;99.90
38398;DHT22;24179;52.094;4.408;2022-12-20T23:10:02;8.50;99.90
38398;DHT22;24179;52.094;4.408;2022-12-20T23:13:03;8.60;99.90
38398;DHT22;24179;52.094;4.408;2022-12-20T23:16:22;8.50;99.90
38398;DHT22;24179;52.094;4.408;2022-12-20T23:19:24;8.50;99.90
38398;DHT22;24179;52.094;4.408;2022-12-20T23:22:24;8.50;99.90
38398;DHT22;24179;52.094;4.408;2022-12-20T23:25:37;8.40;99.90
38398;DHT22;24179;52.094;4.408;2022-12-20T23:28:37;8.40;99.90
38398;DHT22;24179;52.094;4.408;2022-12-20T23:31:38;8.40;99.90
38398;DHT22;24179;52.094;4.408;2022-12-20T23:34:38;8.30;99.90
38398;DHT22;24179;52.094;4.408;2022-12-20T23:37:39;8.30;99.90
38398;DHT22;24179;52.094;4.408;2022-12-20T23:40:39;8.30;99.90
38398;DHT22;24179;52.094;4.408;2022-12-20T23:43:40;8.20;99.90
38398;DHT22;24179;52.094;4.408;2022-12-20T23:46:41;8.10;99.90
38398;DHT22;24179;52.094;4.408;2022-12-20T23:49:41;8.00;99.90
38398;DHT22;24179;52.094;4.408;2022-12-20T23:52:41;7.90;99.90
38398;DHT22;24179;52.094;4.408;2022-12-20T23:55:42;7.80;99.90
38398;DHT22;24179;52.094;4.408;2022-12-20T23:58:43;7.70;99.90
